• Join FlightAware (Why Join?)
  • Login
  • US Flag 
03:48AM EDT


 

Airport Tracker/Info


-or-


 

Live Flight TrackerFlight Track Log ✈ AAL1884 ✈ 28-Mar-2014 ✈ KTPA - KPHL

Flight Track Log - Related Links

Times and Time Zones

All times are in EDT time to prevent confusion due to time zone crossing. See the AAL1884 flight status page for this flight to view local times or setup timezone preferences in your user account.

Time Position Orientation Groundspeed Altitude Reporting Facility
EDT Latitude Longitude Course Direction KTS MPH feet Rate Location/Type
12:18PM 27.9667 -82.5500 354° North 175 201 500  Level Tampa TRACON
12:19PM 27.9167 -82.5667 196° South 187 215 2,000 2,100 Climbing Tampa TRACON
12:20PM 27.9167 -82.6167 270° West 262 302 4,600 2,220 Climbing Tampa TRACON
12:21PM 28.4713 -82.5755 355° North  Level FlightAware Approximate
12:21PM 28.0453 -82.6175 360° North 295 339 8,100  Level Jacksonville Center
12:22PM 28.5988 -82.5833 North  Level FlightAware Approximate
12:22PM 28.1267 -82.6078 North 295 339 10,700  Level Jacksonville Center
12:23PM 28.7262 -82.5908 354° North  Level FlightAware Approximate
12:23PM 28.2247 -82.5958 North 312 359 11,900  Level Jacksonville Center
12:24PM 28.3247 -82.5861 North 341 392 14,500 2,340 Climbing Jacksonville Center
12:25PM 28.4292 -82.5811 North 357 411 16,600 2,040 Climbing Jacksonville Center
12:26PM 28.5356 -82.5878 357° North 368 423 18,600 1,740 Climbing Jacksonville Center
12:27PM 28.6400 -82.5897 359° North 368 423 20,100 1,440 Climbing Jacksonville Center
12:28PM 28.7486 -82.6014 355° North 378 435 21,500 1,680 Climbing Jacksonville Center
12:29PM 28.8550 -82.6153 353° North 384 442 23,500 1,500 Climbing Jacksonville Center
12:30PM 28.9656 -82.6314 353° North 391 450 24,500 960 Climbing Jacksonville Center
12:31PM 29.0806 -82.6456 354° North 396 456 25,500 1,020 Climbing Jacksonville Center
12:32PM 29.1953 -82.6619 353° North 408 470 26,600 1,140 Climbing Jacksonville Center
12:33PM 29.3228 -82.6781 354° North 414 476 27,900 660 Climbing Jacksonville Center
12:34PM 29.4417 -82.6922 354° North 420 483 28,000  Climbing Jacksonville Center
12:35PM 29.5586 -82.6944 359° North 443 510 28,000  Level Jacksonville Center
12:36PM 29.6903 -82.6942 360° North 455 524 28,000  Level Jacksonville Center
12:37PM 29.8194 -82.6939 360° North 460 529 28,000  Level Jacksonville Center
12:38PM 29.9511 -82.6911 North 460 529 28,000 480 Level Jacksonville Center
12:39PM 30.0931 -82.6886 North 460 529 29,000 480 Climbing Jacksonville Center
12:40PM 30.2225 -82.6858 North 460 529 29,000  Level Jacksonville Center
12:41PM 30.3519 -82.6856 360° North 460 529 29,000  Level Jacksonville Center
12:42PM 30.4836 -82.6806 North 460 529 29,000  Level Jacksonville Center
12:43PM 30.5983 -82.6439 15° North 465 535 29,000  Level Jacksonville Center
12:44PM 30.7256 -82.5808 23° Northeast 470 541 29,000 -60 Level Jacksonville Center
12:45PM 30.8486 -82.5200 23° Northeast 480 552 28,900 -60 Descending Jacksonville Center
12:46PM 30.9736 -82.4589 23° Northeast 480 552 28,900  Level Jacksonville Center
12:47PM 31.0986 -82.4000 22° Northeast 485 558 28,900  Level Jacksonville Center
12:48PM 31.2361 -82.3314 23° Northeast 485 558 28,900  Level Jacksonville Center
12:49PM 31.3611 -82.2722 22° Northeast 480 552 29,000  Climbing Jacksonville Center
12:50PM 31.4861 -82.2103 23° Northeast 480 552 29,000  Level Jacksonville Center
12:51PM 31.6153 -82.1486 22° Northeast 485 558 29,000  Level Jacksonville Center
12:52PM 31.7278 -82.0914 23° Northeast 485 558 29,000  Level Jacksonville Center
12:53PM 31.8650 -82.0242 23° Northeast 484 557 29,000  Level Jacksonville Center
12:54PM 31.9897 -81.9617 23° Northeast 490 564 29,000  Level Jacksonville Center
12:55PM 32.1042 -81.9092 21° North 490 564 29,000  Level Jacksonville Center
12:56PM 32.2436 -81.8414 22° Northeast 490 564 29,000  Level Jacksonville Center
12:57PM 32.3706 -81.7808 22° Northeast 490 564 29,000  Level Jacksonville Center
12:58PM 32.4847 -81.7253 22° Northeast 490 564 29,000  Level Jacksonville Center
12:59PM 32.6261 -81.6592 21° North 491 565 29,000  Level Jacksonville Center
01:00PM 32.7464 -81.5736 31° Northeast 497 572 29,000  Level Jacksonville Center
01:01PM 32.8622 -81.4828 33° Northeast 497 572 29,000  Level Jacksonville Center
01:02PM 32.9781 -81.3919 33° Northeast 492 566 29,000  Level Jacksonville Center
01:03PM 33.0917 -81.3008 34° Northeast 492 566 29,000  Level Jacksonville Center
01:04PM 33.2094 -81.2069 34° Northeast 497 572 29,000  Level Jacksonville Center
01:05PM 33.3250 -81.1128 34° Northeast 503 579 29,000  Level Jacksonville Center
01:06PM 33.4283 -81.0336 33° Northeast 503 579 29,000  Level Jacksonville Center
01:07PM 33.5458 -80.9389 34° Northeast 503 579 29,000  Level Jacksonville Center
01:08PM 33.6611 -80.8464 34° Northeast 503 579 29,000  Level Jacksonville Center
01:09PM 33.7764 -80.7514 34° Northeast 503 579 29,000  Level Jacksonville Center
01:10PM 33.8917 -80.6558 35° Northeast 503 579 29,000  Level Jacksonville Center
01:12PM 34.1158 -80.4731 34° Northeast 466 536 29,000  Level Washington Center
01:13PM 34.2325 -80.3794 34° Northeast 485 558 29,000  Level Washington Center
01:14PM 34.3469 -80.2803 36° Northeast 491 565 29,000  Level Washington Center
01:15PM 34.4611 -80.1886 33° Northeast 491 565 29,000  Level Washington Center
01:16PM 34.5753 -80.0917 35° Northeast 491 565 29,000  Level Washington Center
01:17PM 34.6936 -79.9947 34° Northeast 501 577 29,000  Level Washington Center
01:18PM 34.8078 -79.8997 34° Northeast 501 577 29,000  Level Washington Center
01:19PM 34.9239 -79.8019 35° Northeast 501 577 29,000  Level Washington Center
01:20PM 35.0378 -79.7092 34° Northeast 501 577 29,000  Level Washington Center
01:21PM 35.1644 -79.6036 34° Northeast 501 577 29,000  Level Washington Center
01:22PM 35.2819 -79.5181 31° Northeast 501 577 29,000  Level Washington Center
01:23PM 35.4017 -79.4297 31° Northeast 496 571 29,000  Level Washington Center
01:24PM 35.5108 -79.3506 31° Northeast 496 571 29,000  Level Washington Center
01:25PM 35.6389 -79.2569 31° Northeast 496 571 29,000  Level Washington Center
01:26PM 35.7606 -79.1678 31° Northeast 496 571 29,000  Level Washington Center
01:27PM 35.8778 -79.0808 31° Northeast 501 577 29,000  Level Washington Center
01:28PM 35.9992 -78.9939 30° Northeast 501 577 29,000  Level Washington Center
01:29PM 36.1186 -78.9039 31° Northeast 501 577 29,000  Level Washington Center
01:30PM 36.2336 -78.8186 31° Northeast 501 577 29,000  Level Washington Center
01:31PM 36.3528 -78.7281 31° Northeast 501 577 29,000  Level Washington Center
01:32PM 36.4719 -78.6397 31° Northeast 501 577 29,000  Level Washington Center
01:33PM 36.5889 -78.5514 31° Northeast 501 577 29,000  Level Washington Center
01:34PM 36.7039 -78.4625 32° Northeast 495 570 29,000  Level Washington Center
01:35PM 36.8250 -78.3708 31° Northeast 495 570 29,000  Level Washington Center
01:36PM 36.9417 -78.2814 31° Northeast 495 570 29,000  Level Washington Center
01:37PM 37.0519 -78.1942 32° Northeast 507 583 29,000  Level Washington Center
01:38PM 37.1792 -78.0994 31° Northeast 499 574 29,000  Level Washington Center
01:39PM 37.2981 -78.0069 32° Northeast 499 574 29,000  Level Washington Center
01:40PM 37.4167 -77.9164 31° Northeast 499 574 29,000  Level Washington Center
01:41PM 37.5331 -77.8231 32° Northeast 499 574 29,000  Level Washington Center
01:42PM 37.6475 -77.7242 34° Northeast 499 574 29,000  Level Washington Center
01:43PM 37.7619 -77.6169 37° Northeast 499 574 29,000  Level Washington Center
01:44PM 37.8742 -77.5147 36° Northeast 504 580 29,000 -300 Level Washington Center
01:45PM 37.9906 -77.4072 36° Northeast 504 580 28,500 -720 Descending Washington Center
01:46PM 38.0942 -77.3172 34° Northeast 504 580 27,600 -780 Descending Washington Center
01:47PM 38.2039 -77.2114 37° Northeast 504 580 27,000 -360 Descending Washington Center
01:48PM 38.3139 -77.1106 36° Northeast 497 572 27,000  Level Washington Center
01:49PM 38.4256 -77.0094 35° Northeast 497 572 27,000 -780 Level Washington Center
01:50PM 38.5350 -76.9056 37° Northeast 492 566 25,500 -1,560 Descending Washington Center
01:51PM 38.6383 -76.8089 36° Northeast 475 547 24,000 1,680 Descending Washington Center
01:52PM 38.7250 -76.6667 52° Northeast 454 522 29,000 -1,740 Climbing Washington Center
01:53PM 38.7514 -76.5314 76° East 428 493 20,500 -5,460 Descending Washington Center
01:54PM 38.7817 -76.3772 76° East 433 498 18,200 -2,220 Descending Washington Center
01:55PM 38.8136 -76.2258 75° East 433 498 16,200 -1,680 Descending Washington Center
01:56PM 38.8456 -76.0686 75° East 428 493 14,900 -660 Descending Washington Center
01:57PM 38.8753 -75.9250 75° East 417 480 14,900 -540 Level Washington Center
01:58PM 38.9278 -75.8025 61° Northeast 405 466 13,900 -1,320 Descending Washington Center
02:00PM 39.1167 -75.6667 29° Northeast 356 410 10,900 -1,320 Descending Philadelphia TRACON
02:01PM 39.2167 -75.6667 360° North 332 382 10,000 -660 Descending Philadelphia TRACON
02:02PM 39.3000 -75.6500 North 331 381 9,600 -720 Descending Philadelphia TRACON
02:03PM 39.3833 -75.5667 38° Northeast 328 377 8,600 -900 Descending Philadelphia TRACON
02:04PM 39.4167 -75.4833 63° Northeast 327 376 8,000 -360 Descending Philadelphia TRACON
02:05PM 39.4500 -75.3667 70° East 329 379 8,000 -360 Level Philadelphia TRACON
02:06PM 39.5000 -75.2667 57° Northeast 319 367 7,300 -480 Descending Philadelphia TRACON
02:07PM 39.5667 -75.1833 44° Northeast 320 368 7,000 -180 Descending Philadelphia TRACON
02:08PM 39.6333 -75.1000 44° Northeast 320 368 7,000 -540 Level Philadelphia TRACON
02:09PM 39.7167 -75.0833 North 277 319 6,000 -600 Descending Philadelphia TRACON
02:10PM 39.7833 -75.0833 360° North 218 251 5,900 -600 Descending Philadelphia TRACON
02:11PM 39.8167 -75.0333 49° Northeast 229 264 4,800 -1,020 Descending Philadelphia TRACON
02:12PM 39.8333 -74.9500 75° East 240 276 4,000 -480 Descending Philadelphia TRACON
02:13PM 39.8500 -74.8667 75° East 248 285 4,000  Level Philadelphia TRACON
02:14PM 39.9000 -74.8333 27° Northeast 219 252 4,000  Level Philadelphia TRACON
02:15PM 39.9333 -74.8667 323° Northwest 141 162 4,000  Level Philadelphia TRACON
02:16PM 39.9333 -74.9167 270° West 135 155 4,000  Level Philadelphia TRACON
02:17PM 39.9333 -74.9667 270° West 139 160 4,000 -300 Level Philadelphia TRACON
02:18PM 39.9167 -75.0167 247° West 139 160 3,500 -720 Descending Philadelphia TRACON
02:19PM 39.9167 -75.0500 270° West 135 155 2,700 -900 Descending Philadelphia TRACON
02:20PM 39.9000 -75.1000 247° West 161 185 1,900 -840 Descending Philadelphia TRACON
02:21PM 39.8833 -75.1500 247° West 146 168 1,100 -720 Descending Philadelphia TRACON
02:22PM 39.8833 -75.2000 270° West 134 154 400 -660 Descending Philadelphia TRACON